sensor_id;sensor_type;location;lat;lon;timestamp;P1;durP1;ratioP1;P2;durP2;ratioP2
55993;SDS011;67425;52.126;20.638;2024-03-29T00:00:55;7.70;;;4.97;;
55993;SDS011;67425;52.126;20.638;2024-03-29T00:03:21;10.50;;;5.55;;
55993;SDS011;67425;52.126;20.638;2024-03-29T00:05:47;10.30;;;5.07;;
55993;SDS011;67425;52.126;20.638;2024-03-29T00:08:12;12.70;;;5.07;;
55993;SDS011;67425;52.126;20.638;2024-03-29T00:10:38;10.98;;;5.00;;
55993;SDS011;67425;52.126;20.638;2024-03-29T00:13:03;7.90;;;4.15;;
55993;SDS011;67425;52.126;20.638;2024-03-29T00:15:31;7.90;;;4.60;;
55993;SDS011;67425;52.126;20.638;2024-03-29T00:17:57;7.40;;;3.55;;
55993;SDS011;67425;52.126;20.638;2024-03-29T00:20:22;11.75;;;3.45;;
55993;SDS011;67425;52.126;20.638;2024-03-29T00:22:48;11.32;;;3.47;;
55993;SDS011;67425;52.126;20.638;2024-03-29T00:25:14;8.80;;;2.90;;
55993;SDS011;67425;52.126;20.638;2024-03-29T00:27:39;7.75;;;2.85;;
55993;SDS011;67425;52.126;20.638;2024-03-29T00:30:05;3.28;;;2.58;;
55993;SDS011;67425;52.126;20.638;2024-03-29T00:32:31;3.38;;;2.17;;
55993;SDS011;67425;52.126;20.638;2024-03-29T00:34:56;3.35;;;2.58;;
55993;SDS011;67425;52.126;20.638;2024-03-29T00:37:23;3.55;;;2.25;;
55993;SDS011;67425;52.126;20.638;2024-03-29T00:39:49;6.65;;;1.88;;
55993;SDS011;67425;52.126;20.638;2024-03-29T00:42:14;4.75;;;2.30;;
55993;SDS011;67425;52.126;20.638;2024-03-29T00:44:41;3.75;;;1.98;;
55993;SDS011;67425;52.126;20.638;2024-03-29T00:47:07;3.30;;;1.90;;
55993;SDS011;67425;52.126;20.638;2024-03-29T00:49:33;2.50;;;1.90;;
55993;SDS011;67425;52.126;20.638;2024-03-29T00:51:59;5.93;;;2.08;;
55993;SDS011;67425;52.126;20.638;2024-03-29T00:54:25;6.22;;;2.50;;
55993;SDS011;67425;52.126;20.638;2024-03-29T00:56:50;3.45;;;2.10;;
55993;SDS011;67425;52.126;20.638;2024-03-29T00:59:16;1.80;;;1.70;;
55993;SDS011;67425;52.126;20.638;2024-03-29T01:01:42;1.48;;;1.35;;
55993;SDS011;67425;52.126;20.638;2024-03-29T01:04:07;2.05;;;1.42;;
55993;SDS011;67425;52.126;20.638;2024-03-29T01:06:33;1.88;;;1.42;;
55993;SDS011;67425;52.126;20.638;2024-03-29T01:08:59;3.75;;;1.45;;
55993;SDS011;67425;52.126;20.638;2024-03-29T01:11:25;1.70;;;1.30;;
55993;SDS011;67425;52.126;20.638;2024-03-29T01:13:50;2.25;;;1.27;;
55993;SDS011;67425;52.126;20.638;2024-03-29T01:16:16;2.15;;;1.60;;
55993;SDS011;67425;52.126;20.638;2024-03-29T01:18:41;2.55;;;1.40;;
55993;SDS011;67425;52.126;20.638;2024-03-29T01:21:08;1.70;;;1.40;;
55993;SDS011;67425;52.126;20.638;2024-03-29T01:23:34;1.70;;;1.42;;
55993;SDS011;67425;52.126;20.638;2024-03-29T01:25:59;4.43;;;1.88;;
55993;SDS011;67425;52.126;20.638;2024-03-29T01:28:25;3.63;;;1.63;;
55993;SDS011;67425;52.126;20.638;2024-03-29T01:30:51;2.83;;;2.03;;
55993;SDS011;67425;52.126;20.638;2024-03-29T01:33:18;5.22;;;1.40;;
55993;SDS011;67425;52.126;20.638;2024-03-29T01:35:43;3.00;;;1.50;;
55993;SDS011;67425;52.126;20.638;2024-03-29T01:38:09;3.58;;;1.65;;
55993;SDS011;67425;52.126;20.638;2024-03-29T01:40:34;3.40;;;1.80;;
55993;SDS011;67425;52.126;20.638;2024-03-29T01:43:00;8.00;;;2.08;;
55993;SDS011;67425;52.126;20.638;2024-03-29T01:45:26;2.78;;;1.67;;
55993;SDS011;67425;52.126;20.638;2024-03-29T01:47:52;3.15;;;1.98;;
55993;SDS011;67425;52.126;20.638;2024-03-29T01:50:18;2.17;;;1.40;;
55993;SDS011;67425;52.126;20.638;2024-03-29T01:52:43;4.07;;;1.58;;
55993;SDS011;67425;52.126;20.638;2024-03-29T01:55:09;3.10;;;1.30;;
55993;SDS011;67425;52.126;20.638;2024-03-29T01:57:34;2.45;;;1.27;;
55993;SDS011;67425;52.126;20.638;2024-03-29T02:00:00;2.60;;;1.50;;
55993;SDS011;67425;52.126;20.638;2024-03-29T02:02:30;1.98;;;1.75;;
55993;SDS011;67425;52.126;20.638;2024-03-29T02:04:55;8.63;;;1.42;;
55993;SDS011;67425;52.126;20.638;2024-03-29T02:07:22;1.50;;;1.30;;
55993;SDS011;67425;52.126;20.638;2024-03-29T02:09:48;4.95;;;1.52;;
55993;SDS011;67425;52.126;20.638;2024-03-29T02:12:13;2.00;;;1.30;;
55993;SDS011;67425;52.126;20.638;2024-03-29T02:14:39;1.75;;;1.58;;
55993;SDS011;67425;52.126;20.638;2024-03-29T02:17:05;1.05;;;0.95;;
55993;SDS011;67425;52.126;20.638;2024-03-29T02:19:31;1.88;;;1.20;;
55993;SDS011;67425;52.126;20.638;2024-03-29T02:21:57;1.60;;;1.38;;
55993;SDS011;67425;52.126;20.638;2024-03-29T02:24:24;3.92;;;1.90;;
55993;SDS011;67425;52.126;20.638;2024-03-29T02:26:50;2.45;;;1.67;;
55993;SDS011;67425;52.126;20.638;2024-03-29T02:29:16;2.67;;;1.60;;
55993;SDS011;67425;52.126;20.638;2024-03-29T02:31:41;4.13;;;2.05;;
55993;SDS011;67425;52.126;20.638;2024-03-29T02:34:07;2.42;;;1.77;;
55993;SDS011;67425;52.126;20.638;2024-03-29T02:36:34;2.85;;;1.77;;
55993;SDS011;67425;52.126;20.638;2024-03-29T02:38:59;1.77;;;1.55;;
55993;SDS011;67425;52.126;20.638;2024-03-29T02:41:25;3.20;;;1.70;;
55993;SDS011;67425;52.126;20.638;2024-03-29T02:43:51;6.32;;;1.50;;
55993;SDS011;67425;52.126;20.638;2024-03-29T02:46:16;4.97;;;2.17;;
55993;SDS011;67425;52.126;20.638;2024-03-29T02:48:42;1.40;;;1.30;;
55993;SDS011;67425;52.126;20.638;2024-03-29T02:51:08;1.83;;;1.58;;
55993;SDS011;67425;52.126;20.638;2024-03-29T02:53:33;2.83;;;1.92;;
55993;SDS011;67425;52.126;20.638;2024-03-29T02:55:59;2.13;;;1.90;;
55993;SDS011;67425;52.126;20.638;2024-03-29T02:58:24;3.55;;;2.20;;
55993;SDS011;67425;52.126;20.638;2024-03-29T03:00:49;1.63;;;1.20;;
55993;SDS011;67425;52.126;20.638;2024-03-29T03:03:15;1.95;;;1.63;;
55993;SDS011;67425;52.126;20.638;2024-03-29T03:05:41;4.07;;;1.65;;
55993;SDS011;67425;52.126;20.638;2024-03-29T03:08:07;2.30;;;1.85;;
55993;SDS011;67425;52.126;20.638;2024-03-29T03:10:51;2.28;;;2.03;;
55993;SDS011;67425;52.126;20.638;2024-03-29T03:13:26;2.47;;;1.77;;
55993;SDS011;67425;52.126;20.638;2024-03-29T03:15:55;1.88;;;1.63;;
55993;SDS011;67425;52.126;20.638;2024-03-29T03:18:21;1.58;;;1.45;;
55993;SDS011;67425;52.126;20.638;2024-03-29T03:20:50;5.22;;;1.88;;
55993;SDS011;67425;52.126;20.638;2024-03-29T03:23:16;3.88;;;1.95;;
55993;SDS011;67425;52.126;20.638;2024-03-29T03:25:42;2.33;;;1.77;;
55993;SDS011;67425;52.126;20.638;2024-03-29T03:28:07;1.40;;;1.30;;
55993;SDS011;67425;52.126;20.638;2024-03-29T03:30:33;2.00;;;1.40;;
55993;SDS011;67425;52.126;20.638;2024-03-29T03:33:03;3.35;;;1.55;;
55993;SDS011;67425;52.126;20.638;2024-03-29T03:35:28;3.10;;;2.60;;
55993;SDS011;67425;52.126;20.638;2024-03-29T03:37:54;5.43;;;2.35;;
55993;SDS011;67425;52.126;20.638;2024-03-29T03:40:21;2.72;;;1.73;;
55993;SDS011;67425;52.126;20.638;2024-03-29T03:42:46;11.63;;;2.00;;
55993;SDS011;67425;52.126;20.638;2024-03-29T03:45:12;2.90;;;2.05;;
55993;SDS011;67425;52.126;20.638;2024-03-29T03:47:38;1.58;;;1.38;;
55993;SDS011;67425;52.126;20.638;2024-03-29T03:50:04;2.33;;;1.58;;
55993;SDS011;67425;52.126;20.638;2024-03-29T03:52:29;4.30;;;1.98;;
55993;SDS011;67425;52.126;20.638;2024-03-29T03:54:55;3.65;;;1.90;;
55993;SDS011;67425;52.126;20.638;2024-03-29T03:57:20;2.15;;;1.90;;
55993;SDS011;67425;52.126;20.638;2024-03-29T03:59:46;2.72;;;1.70;;
55993;SDS011;67425;52.126;20.638;2024-03-29T04:02:12;5.38;;;1.80;;
55993;SDS011;67425;52.126;20.638;2024-03-29T04:04:37;1.60;;;1.50;;
55993;SDS011;67425;52.126;20.638;2024-03-29T04:07:02;2.05;;;1.15;;
55993;SDS011;67425;52.126;20.638;2024-03-29T04:09:28;3.60;;;1.42;;
55993;SDS011;67425;52.126;20.638;2024-03-29T04:11:53;1.45;;;1.20;;
55993;SDS011;67425;52.126;20.638;2024-03-29T04:14:19;1.63;;;1.52;;
55993;SDS011;67425;52.126;20.638;2024-03-29T04:16:46;2.47;;;1.52;;
55993;SDS011;67425;52.126;20.638;2024-03-29T04:19:11;1.98;;;1.73;;
55993;SDS011;67425;52.126;20.638;2024-03-29T04:21:37;4.35;;;1.83;;
55993;SDS011;67425;52.126;20.638;2024-03-29T04:24:02;1.42;;;1.25;;
55993;SDS011;67425;52.126;20.638;2024-03-29T04:26:28;2.33;;;1.75;;
55993;SDS011;67425;52.126;20.638;2024-03-29T04:28:53;3.50;;;1.55;;
55993;SDS011;67425;52.126;20.638;2024-03-29T04:31:18;4.40;;;1.83;;
55993;SDS011;67425;52.126;20.638;2024-03-29T04:33:44;3.30;;;1.33;;
55993;SDS011;67425;52.126;20.638;2024-03-29T04:36:09;5.05;;;1.55;;
55993;SDS011;67425;52.126;20.638;2024-03-29T04:38:35;2.40;;;1.50;;
55993;SDS011;67425;52.126;20.638;2024-03-29T04:41:00;3.88;;;2.03;;
55993;SDS011;67425;52.126;20.638;2024-03-29T04:43:26;4.15;;;1.52;;
55993;SDS011;67425;52.126;20.638;2024-03-29T04:46:03;1.92;;;1.15;;
55993;SDS011;67425;52.126;20.638;2024-03-29T04:48:31;13.52;;;1.77;;
55993;SDS011;67425;52.126;20.638;2024-03-29T04:50:57;1.63;;;1.52;;
55993;SDS011;67425;52.126;20.638;2024-03-29T04:53:22;1.73;;;1.52;;
55993;SDS011;67425;52.126;20.638;2024-03-29T04:55:53;11.52;;;2.28;;
55993;SDS011;67425;52.126;20.638;2024-03-29T04:58:19;3.17;;;1.75;;
55993;SDS011;67425;52.126;20.638;2024-03-29T05:00:45;2.72;;;1.42;;
55993;SDS011;67425;52.126;20.638;2024-03-29T05:03:10;1.65;;;1.50;;
55993;SDS011;67425;52.126;20.638;2024-03-29T05:05:35;1.60;;;1.50;;
55993;SDS011;67425;52.126;20.638;2024-03-29T05:08:01;2.50;;;1.85;;
55993;SDS011;67425;52.126;20.638;2024-03-29T05:10:26;4.53;;;1.95;;
55993;SDS011;67425;52.126;20.638;2024-03-29T05:12:52;1.08;;;0.90;;
55993;SDS011;67425;52.126;20.638;2024-03-29T05:15:19;3.05;;;1.70;;
55993;SDS011;67425;52.126;20.638;2024-03-29T05:17:44;4.68;;;1.40;;
55993;SDS011;67425;52.126;20.638;2024-03-29T05:20:10;3.92;;;1.70;;
55993;SDS011;67425;52.126;20.638;2024-03-29T05:22:36;6.05;;;2.00;;
55993;SDS011;67425;52.126;20.638;2024-03-29T05:25:01;11.85;;;1.80;;
55993;SDS011;67425;52.126;20.638;2024-03-29T05:27:28;2.25;;;1.98;;
55993;SDS011;67425;52.126;20.638;2024-03-29T05:29:54;5.18;;;2.67;;
55993;SDS011;67425;52.126;20.638;2024-03-29T05:32:19;3.88;;;1.90;;
55993;SDS011;67425;52.126;20.638;2024-03-29T05:34:44;4.93;;;2.10;;
55993;SDS011;67425;52.126;20.638;2024-03-29T05:37:10;4.60;;;2.05;;
55993;SDS011;67425;52.126;20.638;2024-03-29T05:39:35;2.70;;;1.95;;
55993;SDS011;67425;52.126;20.638;2024-03-29T05:42:01;14.18;;;3.05;;
55993;SDS011;67425;52.126;20.638;2024-03-29T05:44:26;4.88;;;1.98;;
55993;SDS011;67425;52.126;20.638;2024-03-29T05:46:52;4.05;;;2.53;;
55993;SDS011;67425;52.126;20.638;2024-03-29T05:49:17;4.22;;;2.17;;
55993;SDS011;67425;52.126;20.638;2024-03-29T05:51:43;5.13;;;1.80;;
55993;SDS011;67425;52.126;20.638;2024-03-29T05:54:08;2.38;;;1.95;;
55993;SDS011;67425;52.126;20.638;2024-03-29T05:56:34;2.42;;;1.90;;
55993;SDS011;67425;52.126;20.638;2024-03-29T05:58:59;3.85;;;1.70;;
55993;SDS011;67425;52.126;20.638;2024-03-29T06:01:24;1.85;;;1.63;;
55993;SDS011;67425;52.126;20.638;2024-03-29T06:03:50;3.95;;;1.70;;
55993;SDS011;67425;52.126;20.638;2024-03-29T06:06:19;6.35;;;1.92;;
55993;SDS011;67425;52.126;20.638;2024-03-29T06:08:49;2.10;;;1.65;;
55993;SDS011;67425;52.126;20.638;2024-03-29T06:11:14;13.63;;;2.42;;
55993;SDS011;67425;52.126;20.638;2024-03-29T06:13:40;4.72;;;2.10;;
55993;SDS011;67425;52.126;20.638;2024-03-29T06:16:17;3.13;;;2.00;;
55993;SDS011;67425;52.126;20.638;2024-03-29T06:19:01;12.95;;;2.38;;
55993;SDS011;67425;52.126;20.638;2024-03-29T06:21:27;2.38;;;1.75;;
55993;SDS011;67425;52.126;20.638;2024-03-29T06:23:52;5.25;;;1.70;;
55993;SDS011;67425;52.126;20.638;2024-03-29T06:26:18;3.90;;;1.23;;
55993;SDS011;67425;52.126;20.638;2024-03-29T06:28:43;6.70;;;1.67;;
55993;SDS011;67425;52.126;20.638;2024-03-29T06:31:08;1.53;;;1.30;;
55993;SDS011;67425;52.126;20.638;2024-03-29T06:33:34;5.45;;;1.90;;
55993;SDS011;67425;52.126;20.638;2024-03-29T06:35:59;2.70;;;1.50;;
55993;SDS011;67425;52.126;20.638;2024-03-29T06:38:25;5.00;;;1.55;;
55993;SDS011;67425;52.126;20.638;2024-03-29T06:40:50;2.20;;;1.55;;
55993;SDS011;67425;52.126;20.638;2024-03-29T06:43:16;1.33;;;1.23;;
55993;SDS011;67425;52.126;20.638;2024-03-29T06:45:41;4.57;;;1.60;;
55993;SDS011;67425;52.126;20.638;2024-03-29T06:48:08;2.42;;;1.42;;
55993;SDS011;67425;52.126;20.638;2024-03-29T06:50:34;1.30;;;1.00;;
55993;SDS011;67425;52.126;20.638;2024-03-29T06:52:59;1.83;;;1.40;;
55993;SDS011;67425;52.126;20.638;2024-03-29T06:55:25;2.70;;;1.65;;
55993;SDS011;67425;52.126;20.638;2024-03-29T06:57:50;2.63;;;1.35;;
55993;SDS011;67425;52.126;20.638;2024-03-29T07:00:16;4.05;;;1.30;;
55993;SDS011;67425;52.126;20.638;2024-03-29T07:02:42;8.95;;;1.40;;
55993;SDS011;67425;52.126;20.638;2024-03-29T07:05:08;2.58;;;1.15;;
55993;SDS011;67425;52.126;20.638;2024-03-29T07:07:36;3.05;;;1.83;;
55993;SDS011;67425;52.126;20.638;2024-03-29T07:10:02;3.78;;;1.15;;
55993;SDS011;67425;52.126;20.638;2024-03-29T07:12:27;3.00;;;0.93;;
55993;SDS011;67425;52.126;20.638;2024-03-29T07:14:53;3.67;;;1.73;;
55993;SDS011;67425;52.126;20.638;2024-03-29T07:17:18;1.30;;;1.17;;
55993;SDS011;67425;52.126;20.638;2024-03-29T07:19:44;3.20;;;1.10;;
55993;SDS011;67425;52.126;20.638;2024-03-29T07:22:09;2.25;;;1.27;;
55993;SDS011;67425;52.126;20.638;2024-03-29T07:24:34;3.38;;;1.20;;
55993;SDS011;67425;52.126;20.638;2024-03-29T07:27:00;2.38;;;0.90;;
55993;SDS011;67425;52.126;20.638;2024-03-29T07:29:25;1.50;;;1.23;;
55993;SDS011;67425;52.126;20.638;2024-03-29T07:31:51;2.15;;;1.30;;
55993;SDS011;67425;52.126;20.638;2024-03-29T07:34:17;4.95;;;0.98;;
55993;SDS011;67425;52.126;20.638;2024-03-29T07:36:42;2.42;;;1.40;;
55993;SDS011;67425;52.126;20.638;2024-03-29T07:39:08;3.38;;;1.23;;
55993;SDS011;67425;52.126;20.638;2024-03-29T07:41:33;2.15;;;1.08;;
55993;SDS011;67425;52.126;20.638;2024-03-29T07:43:59;2.03;;;0.82;;
55993;SDS011;67425;52.126;20.638;2024-03-29T07:46:28;2.08;;;1.10;;
55993;SDS011;67425;52.126;20.638;2024-03-29T07:48:56;1.83;;;1.23;;
55993;SDS011;67425;52.126;20.638;2024-03-29T07:51:22;1.40;;;1.00;;
55993;SDS011;67425;52.126;20.638;2024-03-29T07:53:48;1.15;;;1.00;;
55993;SDS011;67425;52.126;20.638;2024-03-29T07:56:13;1.30;;;1.00;;
55993;SDS011;67425;52.126;20.638;2024-03-29T07:58:38;0.93;;;0.88;;
55993;SDS011;67425;52.126;20.638;2024-03-29T08:01:04;4.90;;;1.10;;
55993;SDS011;67425;52.126;20.638;2024-03-29T08:03:29;2.03;;;0.80;;
55993;SDS011;67425;52.126;20.638;2024-03-29T08:05:58;2.42;;;1.10;;
55993;SDS011;67425;52.126;20.638;2024-03-29T08:08:24;1.52;;;0.98;;
55993;SDS011;67425;52.126;20.638;2024-03-29T08:10:53;1.77;;;1.05;;
55993;SDS011;67425;52.126;20.638;2024-03-29T08:13:19;1.65;;;1.25;;
55993;SDS011;67425;52.126;20.638;2024-03-29T08:15:46;1.13;;;1.02;;
55993;SDS011;67425;52.126;20.638;2024-03-29T08:18:12;6.53;;;1.60;;
55993;SDS011;67425;52.126;20.638;2024-03-29T08:20:38;2.58;;;1.00;;
55993;SDS011;67425;52.126;20.638;2024-03-29T08:23:03;5.45;;;1.35;;
55993;SDS011;67425;52.126;20.638;2024-03-29T08:25:29;1.75;;;1.40;;
55993;SDS011;67425;52.126;20.638;2024-03-29T08:27:55;2.25;;;1.30;;
55993;SDS011;67425;52.126;20.638;2024-03-29T08:30:23;2.42;;;1.58;;
55993;SDS011;67425;52.126;20.638;2024-03-29T08:32:50;2.38;;;1.50;;
55993;SDS011;67425;52.126;20.638;2024-03-29T08:35:17;3.17;;;1.40;;
55993;SDS011;67425;52.126;20.638;2024-03-29T08:37:43;1.58;;;1.40;;
55993;SDS011;67425;52.126;20.638;2024-03-29T08:40:08;5.47;;;1.90;;
55993;SDS011;67425;52.126;20.638;2024-03-29T08:42:34;3.20;;;2.03;;
55993;SDS011;67425;52.126;20.638;2024-03-29T08:45:02;1.25;;;1.13;;
55993;SDS011;67425;52.126;20.638;2024-03-29T08:47:28;3.90;;;1.90;;
55993;SDS011;67425;52.126;20.638;2024-03-29T08:49:54;2.75;;;1.80;;
55993;SDS011;67425;52.126;20.638;2024-03-29T08:52:19;5.70;;;1.45;;
55993;SDS011;67425;52.126;20.638;2024-03-29T08:54:45;1.58;;;1.48;;
55993;SDS011;67425;52.126;20.638;2024-03-29T08:57:10;1.85;;;1.30;;
55993;SDS011;67425;52.126;20.638;2024-03-29T08:59:36;5.13;;;1.35;;
55993;SDS011;67425;52.126;20.638;2024-03-29T09:02:04;2.92;;;1.60;;
55993;SDS011;67425;52.126;20.638;2024-03-29T09:04:33;2.40;;;1.52;;
55993;SDS011;67425;52.126;20.638;2024-03-29T09:07:02;2.45;;;2.20;;
55993;SDS011;67425;52.126;20.638;2024-03-29T09:09:28;4.40;;;2.03;;
55993;SDS011;67425;52.126;20.638;2024-03-29T09:11:56;2.13;;;1.40;;
55993;SDS011;67425;52.126;20.638;2024-03-29T09:14:23;1.90;;;1.40;;
55993;SDS011;67425;52.126;20.638;2024-03-29T09:16:49;2.03;;;1.77;;
55993;SDS011;67425;52.126;20.638;2024-03-29T09:19:15;2.00;;;1.77;;
55993;SDS011;67425;52.126;20.638;2024-03-29T09:21:40;1.77;;;1.65;;
55993;SDS011;67425;52.126;20.638;2024-03-29T09:24:06;8.07;;;1.98;;
55993;SDS011;67425;52.126;20.638;2024-03-29T09:26:32;2.33;;;1.90;;
55993;SDS011;67425;52.126;20.638;2024-03-29T09:28:58;4.20;;;1.70;;
55993;SDS011;67425;52.126;20.638;2024-03-29T09:31:23;4.13;;;1.80;;
55993;SDS011;67425;52.126;20.638;2024-03-29T09:33:49;1.83;;;1.73;;
55993;SDS011;67425;52.126;20.638;2024-03-29T09:36:20;5.63;;;1.60;;
55993;SDS011;67425;52.126;20.638;2024-03-29T09:38:48;6.25;;;1.23;;
55993;SDS011;67425;52.126;20.638;2024-03-29T09:41:14;6.93;;;1.50;;
55993;SDS011;67425;52.126;20.638;2024-03-29T09:43:41;3.30;;;1.55;;
55993;SDS011;67425;52.126;20.638;2024-03-29T09:46:09;3.10;;;1.40;;
55993;SDS011;67425;52.126;20.638;2024-03-29T09:48:35;4.40;;;1.67;;
55993;SDS011;67425;52.126;20.638;2024-03-29T09:51:05;2.60;;;1.67;;
55993;SDS011;67425;52.126;20.638;2024-03-29T09:53:35;2.83;;;1.60;;
55993;SDS011;67425;52.126;20.638;2024-03-29T09:56:05;1.48;;;1.20;;
55993;SDS011;67425;52.126;20.638;2024-03-29T09:58:32;2.65;;;1.42;;
55993;SDS011;67425;52.126;20.638;2024-03-29T10:00:58;1.77;;;1.50;;
55993;SDS011;67425;52.126;20.638;2024-03-29T10:03:24;3.25;;;1.45;;
55993;SDS011;67425;52.126;20.638;2024-03-29T10:06:00;3.45;;;1.27;;
55993;SDS011;67425;52.126;20.638;2024-03-29T10:08:27;1.20;;;1.10;;
55993;SDS011;67425;52.126;20.638;2024-03-29T10:10:54;3.40;;;1.30;;
55993;SDS011;67425;52.126;20.638;2024-03-29T10:13:21;3.80;;;1.33;;
55993;SDS011;67425;52.126;20.638;2024-03-29T10:15:54;3.95;;;0.98;;
55993;SDS011;67425;52.126;20.638;2024-03-29T10:21:02;2.20;;;0.93;;
55993;SDS011;67425;52.126;20.638;2024-03-29T10:23:28;1.58;;;1.02;;
55993;SDS011;67425;52.126;20.638;2024-03-29T10:25:55;3.20;;;1.08;;
55993;SDS011;67425;52.126;20.638;2024-03-29T10:28:20;1.83;;;1.58;;
55993;SDS011;67425;52.126;20.638;2024-03-29T10:30:46;1.55;;;0.98;;
55993;SDS011;67425;52.126;20.638;2024-03-29T10:33:13;0.95;;;0.85;;
55993;SDS011;67425;52.126;20.638;2024-03-29T10:35:41;5.97;;;0.90;;
55993;SDS011;67425;52.126;20.638;2024-03-29T10:38:09;3.17;;;1.77;;
55993;SDS011;67425;52.126;20.638;2024-03-29T10:40:36;4.82;;;1.02;;
55993;SDS011;67425;52.126;20.638;2024-03-29T10:43:07;1.88;;;0.95;;
55993;SDS011;67425;52.126;20.638;2024-03-29T10:45:37;1.92;;;0.90;;
55993;SDS011;67425;52.126;20.638;2024-03-29T10:48:03;1.20;;;0.77;;
55993;SDS011;67425;52.126;20.638;2024-03-29T10:50:34;1.65;;;0.52;;
55993;SDS011;67425;52.126;20.638;2024-03-29T10:53:00;2.97;;;0.85;;
55993;SDS011;67425;52.126;20.638;2024-03-29T10:55:28;3.45;;;0.57;;
55993;SDS011;67425;52.126;20.638;2024-03-29T10:57:55;2.97;;;0.80;;
55993;SDS011;67425;52.126;20.638;2024-03-29T11:00:23;1.58;;;0.90;;
55993;SDS011;67425;52.126;20.638;2024-03-29T11:03:05;2.47;;;0.82;;
55993;SDS011;67425;52.126;20.638;2024-03-29T11:05:43;0.63;;;0.60;;
55993;SDS011;67425;52.126;20.638;2024-03-29T11:08:11;1.98;;;0.70;;
55993;SDS011;67425;52.126;20.638;2024-03-29T11:10:41;2.10;;;0.70;;
55993;SDS011;67425;52.126;20.638;2024-03-29T11:15:49;2.35;;;0.90;;
55993;SDS011;67425;52.126;20.638;2024-03-29T11:18:15;1.42;;;0.70;;
55993;SDS011;67425;52.126;20.638;2024-03-29T11:20:44;4.22;;;0.77;;
55993;SDS011;67425;52.126;20.638;2024-03-29T11:23:15;2.00;;;1.15;;
55993;SDS011;67425;52.126;20.638;2024-03-29T11:25:42;1.73;;;0.98;;
55993;SDS011;67425;52.126;20.638;2024-03-29T11:28:11;1.67;;;1.08;;
55993;SDS011;67425;52.126;20.638;2024-03-29T11:30:47;2.80;;;0.90;;
55993;SDS011;67425;52.126;20.638;2024-03-29T11:35:58;3.13;;;0.50;;
55993;SDS011;67425;52.126;20.638;2024-03-29T11:38:35;1.70;;;0.90;;
55993;SDS011;67425;52.126;20.638;2024-03-29T11:41:10;2.30;;;0.60;;
55993;SDS011;67425;52.126;20.638;2024-03-29T11:43:37;5.60;;;0.80;;
55993;SDS011;67425;52.126;20.638;2024-03-29T11:46:08;1.42;;;0.70;;
55993;SDS011;67425;52.126;20.638;2024-03-29T11:48:37;5.57;;;1.02;;
55993;SDS011;67425;52.126;20.638;2024-03-29T11:51:04;6.65;;;0.95;;
55993;SDS011;67425;52.126;20.638;2024-03-29T11:53:31;1.77;;;0.60;;
55993;SDS011;67425;52.126;20.638;2024-03-29T11:56:00;3.35;;;0.90;;
55993;SDS011;67425;52.126;20.638;2024-03-29T11:58:27;4.03;;;0.90;;
55993;SDS011;67425;52.126;20.638;2024-03-29T12:00:54;4.35;;;1.00;;
55993;SDS011;67425;52.126;20.638;2024-03-29T12:03:22;0.55;;;0.55;;
55993;SDS011;67425;52.126;20.638;2024-03-29T12:05:51;3.40;;;0.70;;
55993;SDS011;67425;52.126;20.638;2024-03-29T12:08:24;2.33;;;0.80;;
55993;SDS011;67425;52.126;20.638;2024-03-29T12:10:51;5.18;;;1.00;;
55993;SDS011;67425;52.126;20.638;2024-03-29T12:13:17;1.70;;;0.95;;
55993;SDS011;67425;52.126;20.638;2024-03-29T12:15:43;2.70;;;0.90;;
55993;SDS011;67425;52.126;20.638;2024-03-29T12:18:09;7.03;;;0.90;;
55993;SDS011;67425;52.126;20.638;2024-03-29T12:20:36;2.53;;;1.40;;
55993;SDS011;67425;52.126;20.638;2024-03-29T12:23:02;0.80;;;0.80;;
55993;SDS011;67425;52.126;20.638;2024-03-29T12:25:30;1.10;;;0.70;;
55993;SDS011;67425;52.126;20.638;2024-03-29T12:27:57;1.20;;;0.60;;
55993;SDS011;67425;52.126;20.638;2024-03-29T12:30:23;1.92;;;0.98;;
55993;SDS011;67425;52.126;20.638;2024-03-29T12:35:43;1.05;;;0.60;;
55993;SDS011;67425;52.126;20.638;2024-03-29T12:38:11;2.53;;;1.42;;
55993;SDS011;67425;52.126;20.638;2024-03-29T12:40:41;5.50;;;1.10;;
55993;SDS011;67425;52.126;20.638;2024-03-29T12:43:09;3.00;;;1.10;;
55993;SDS011;67425;52.126;20.638;2024-03-29T12:45:35;0.80;;;0.80;;
55993;SDS011;67425;52.126;20.638;2024-03-29T12:48:02;0.57;;;0.50;;
55993;SDS011;67425;52.126;20.638;2024-03-29T12:50:28;1.15;;;0.60;;
55993;SDS011;67425;52.126;20.638;2024-03-29T12:52:58;0.95;;;0.65;;
55993;SDS011;67425;52.126;20.638;2024-03-29T12:55:25;11.63;;;0.80;;
55993;SDS011;67425;52.126;20.638;2024-03-29T12:57:56;4.40;;;0.63;;
55993;SDS011;67425;52.126;20.638;2024-03-29T13:00:25;7.40;;;0.60;;
55993;SDS011;67425;52.126;20.638;2024-03-29T13:02:50;3.33;;;0.70;;
55993;SDS011;67425;52.126;20.638;2024-03-29T13:05:15;1.65;;;0.57;;
55993;SDS011;67425;52.126;20.638;2024-03-29T13:07:41;2.03;;;0.60;;
55993;SDS011;67425;52.126;20.638;2024-03-29T13:10:08;2.00;;;0.52;;
55993;SDS011;67425;52.126;20.638;2024-03-29T13:12:44;1.10;;;0.70;;
55993;SDS011;67425;52.126;20.638;2024-03-29T13:15:20;5.13;;;0.60;;
55993;SDS011;67425;52.126;20.638;2024-03-29T13:17:50;0.77;;;0.50;;
55993;SDS011;67425;52.126;20.638;2024-03-29T13:20:17;0.70;;;0.30;;
55993;SDS011;67425;52.126;20.638;2024-03-29T13:22:43;0.68;;;0.52;;
55993;SDS011;67425;52.126;20.638;2024-03-29T13:25:11;1.23;;;0.73;;
55993;SDS011;67425;52.126;20.638;2024-03-29T13:27:43;6.53;;;0.63;;
55993;SDS011;67425;52.126;20.638;2024-03-29T13:30:11;4.65;;;0.70;;
55993;SDS011;67425;52.126;20.638;2024-03-29T13:32:41;1.10;;;0.47;;
55993;SDS011;67425;52.126;20.638;2024-03-29T13:35:09;1.10;;;0.90;;
55993;SDS011;67425;52.126;20.638;2024-03-29T13:37:37;1.80;;;0.50;;
55993;SDS011;67425;52.126;20.638;2024-03-29T13:40:08;5.93;;;0.50;;
55993;SDS011;67425;52.126;20.638;2024-03-29T13:42:34;0.50;;;0.50;;
55993;SDS011;67425;52.126;20.638;2024-03-29T13:45:00;3.53;;;0.70;;
55993;SDS011;67425;52.126;20.638;2024-03-29T13:47:26;2.05;;;0.43;;
55993;SDS011;67425;52.126;20.638;2024-03-29T13:49:51;3.38;;;0.80;;
55993;SDS011;67425;52.126;20.638;2024-03-29T13:52:18;3.38;;;0.60;;
55993;SDS011;67425;52.126;20.638;2024-03-29T13:54:44;3.28;;;0.68;;
55993;SDS011;67425;52.126;20.638;2024-03-29T13:57:13;1.33;;;0.63;;
55993;SDS011;67425;52.126;20.638;2024-03-29T13:59:39;1.48;;;0.52;;
55993;SDS011;67425;52.126;20.638;2024-03-29T14:02:07;1.80;;;0.50;;
55993;SDS011;67425;52.126;20.638;2024-03-29T14:04:33;2.30;;;0.52;;
55993;SDS011;67425;52.126;20.638;2024-03-29T14:06:58;12.30;;;0.55;;
55993;SDS011;67425;52.126;20.638;2024-03-29T14:09:24;1.15;;;0.60;;
55993;SDS011;67425;52.126;20.638;2024-03-29T14:11:49;0.98;;;0.60;;
55993;SDS011;67425;52.126;20.638;2024-03-29T14:14:15;2.83;;;0.50;;
55993;SDS011;67425;52.126;20.638;2024-03-29T14:16:41;1.00;;;0.40;;
55993;SDS011;67425;52.126;20.638;2024-03-29T14:19:06;3.20;;;0.90;;
55993;SDS011;67425;52.126;20.638;2024-03-29T14:21:32;1.08;;;0.30;;
55993;SDS011;67425;52.126;20.638;2024-03-29T14:23:57;0.40;;;0.40;;
55993;SDS011;67425;52.126;20.638;2024-03-29T14:26:23;3.28;;;0.60;;
55993;SDS011;67425;52.126;20.638;2024-03-29T14:28:48;0.93;;;0.52;;
55993;SDS011;67425;52.126;20.638;2024-03-29T14:31:14;1.50;;;0.43;;
55993;SDS011;67425;52.126;20.638;2024-03-29T14:33:40;1.80;;;0.77;;
55993;SDS011;67425;52.126;20.638;2024-03-29T14:36:06;3.35;;;0.60;;
55993;SDS011;67425;52.126;20.638;2024-03-29T14:38:31;2.65;;;0.70;;
55993;SDS011;67425;52.126;20.638;2024-03-29T14:40:57;1.15;;;0.70;;